sensor_id;sensor_type;location;lat;lon;timestamp;pressure;altitude;pressure_sealevel;temperature;humidity
21185;BME280;18176;49.502;11.754;2023-03-22T00:02:54;96786.78;;;14.00;69.28
21185;BME280;18176;49.502;11.754;2023-03-22T00:06:58;96791.13;;;14.06;69.18
21185;BME280;18176;49.502;11.754;2023-03-22T00:10:58;96787.38;;;14.02;69.70
21185;BME280;18176;49.502;11.754;2023-03-22T00:14:59;96779.91;;;14.04;69.46
21185;BME280;18176;49.502;11.754;2023-03-22T00:19:04;96763.94;;;14.04;69.12
21185;BME280;18176;49.502;11.754;2023-03-22T00:23:08;96775.63;;;14.03;69.27
21185;BME280;18176;49.502;11.754;2023-03-22T00:27:08;96771.84;;;13.94;69.57
21185;BME280;18176;49.502;11.754;2023-03-22T00:31:10;96768.13;;;13.95;69.48
21185;BME280;18176;49.502;11.754;2023-03-22T00:35:12;96762.56;;;14.01;68.88
21185;BME280;18176;49.502;11.754;2023-03-22T00:39:15;96755.56;;;13.90;69.45
21185;BME280;18176;49.502;11.754;2023-03-22T00:43:16;96766.72;;;13.87;69.77
21185;BME280;18176;49.502;11.754;2023-03-22T00:47:20;96768.03;;;13.85;69.37
21185;BME280;18176;49.502;11.754;2023-03-22T00:51:21;96760.59;;;13.87;69.43
21185;BME280;18176;49.502;11.754;2023-03-22T00:55:27;96763.34;;;13.97;69.07
21185;BME280;18176;49.502;11.754;2023-03-22T00:59:27;96747.91;;;13.99;68.58
21185;BME280;18176;49.502;11.754;2023-03-22T01:03:29;96747.81;;;13.89;68.98
21185;BME280;18176;49.502;11.754;2023-03-22T01:07:30;96739.72;;;13.74;69.06
21185;BME280;18176;49.502;11.754;2023-03-22T01:11:35;96744.88;;;13.27;70.92
21185;BME280;18176;49.502;11.754;2023-03-22T01:15:36;96747.59;;;13.05;71.19
21185;BME280;18176;49.502;11.754;2023-03-22T01:19:39;96742.13;;;12.95;71.35
21185;BME280;18176;49.502;11.754;2023-03-22T01:23:39;96743.22;;;12.99;71.23
21185;BME280;18176;49.502;11.754;2023-03-22T01:27:42;96741.97;;;12.85;71.82
21185;BME280;18176;49.502;11.754;2023-03-22T01:31:43;96737.88;;;12.99;71.16
21185;BME280;18176;49.502;11.754;2023-03-22T01:35:44;96736.03;;;13.00;70.95
21185;BME280;18176;49.502;11.754;2023-03-22T01:39:45;96724.22;;;13.12;70.66
21185;BME280;18176;49.502;11.754;2023-03-22T01:44:27;96717.47;;;12.56;72.46
21185;BME280;18176;49.502;11.754;2023-03-22T01:48:34;96721.09;;;12.29;73.36
21185;BME280;18176;49.502;11.754;2023-03-22T01:52:40;96712.50;;;12.05;73.87
21185;BME280;18176;49.502;11.754;2023-03-22T01:56:48;96712.53;;;11.88;74.99
21185;BME280;18176;49.502;11.754;2023-03-22T02:01:03;96707.78;;;11.90;74.81
21185;BME280;18176;49.502;11.754;2023-03-22T02:05:16;96705.88;;;11.69;75.14
21185;BME280;18176;49.502;11.754;2023-03-22T02:09:19;96710.34;;;11.52;75.34
21185;BME280;18176;49.502;11.754;2023-03-22T02:18:37;96715.84;;;11.17;76.10
21185;BME280;18176;49.502;11.754;2023-03-22T02:28:13;96703.50;;;10.95;76.87
21185;BME280;18176;49.502;11.754;2023-03-22T02:33:00;96705.50;;;10.88;76.63
21185;BME280;18176;49.502;11.754;2023-03-22T02:37:49;96706.91;;;10.79;76.75
21185;BME280;18176;49.502;11.754;2023-03-22T02:42:11;96699.44;;;10.76;76.48
21185;BME280;18176;49.502;11.754;2023-03-22T02:46:23;96700.00;;;10.78;76.47
21185;BME280;18176;49.502;11.754;2023-03-22T02:50:33;96698.00;;;10.85;75.27
21185;BME280;18176;49.502;11.754;2023-03-22T02:54:44;96699.88;;;10.44;76.95
21185;BME280;18176;49.502;11.754;2023-03-22T02:58:53;96703.44;;;10.38;77.50
21185;BME280;18176;49.502;11.754;2023-03-22T03:03:01;96701.84;;;10.37;77.78
21185;BME280;18176;49.502;11.754;2023-03-22T03:07:11;96701.75;;;10.32;77.07
21185;BME280;18176;49.502;11.754;2023-03-22T03:11:13;96691.03;;;10.04;78.32
21185;BME280;18176;49.502;11.754;2023-03-22T03:15:21;96693.38;;;10.12;78.57
21185;BME280;18176;49.502;11.754;2023-03-22T03:19:31;96687.28;;;10.12;79.27
21185;BME280;18176;49.502;11.754;2023-03-22T03:23:46;96692.22;;;10.08;79.58
21185;BME280;18176;49.502;11.754;2023-03-22T03:27:52;96684.38;;;9.78;80.44
21185;BME280;18176;49.502;11.754;2023-03-22T03:32:04;96689.59;;;9.73;80.22
21185;BME280;18176;49.502;11.754;2023-03-22T03:36:10;96683.72;;;9.83;79.16
21185;BME280;18176;49.502;11.754;2023-03-22T03:40:18;96679.44;;;9.70;79.46
21185;BME280;18176;49.502;11.754;2023-03-22T03:44:20;96658.38;;;9.41;78.96
21185;BME280;18176;49.502;11.754;2023-03-22T03:48:29;96681.94;;;9.42;78.94
21185;BME280;18176;49.502;11.754;2023-03-22T03:52:31;96688.06;;;9.43;79.27
21185;BME280;18176;49.502;11.754;2023-03-22T03:56:32;96689.56;;;9.62;78.22
21185;BME280;18176;49.502;11.754;2023-03-22T04:00:34;96698.78;;;9.59;79.34
21185;BME280;18176;49.502;11.754;2023-03-22T04:05:00;96695.75;;;9.56;78.39
21185;BME280;18176;49.502;11.754;2023-03-22T04:09:00;96704.63;;;9.50;78.17
21185;BME280;18176;49.502;11.754;2023-03-22T04:13:08;96696.00;;;9.54;78.15
21185;BME280;18176;49.502;11.754;2023-03-22T04:17:08;96699.88;;;9.40;78.66
21185;BME280;18176;49.502;11.754;2023-03-22T04:21:12;96712.28;;;9.28;79.15
21185;BME280;18176;49.502;11.754;2023-03-22T04:25:27;96704.06;;;9.06;81.09
21185;BME280;18176;49.502;11.754;2023-03-22T04:29:36;96708.00;;;9.15;80.26
21185;BME280;18176;49.502;11.754;2023-03-22T04:33:57;96699.50;;;9.13;79.85
21185;BME280;18176;49.502;11.754;2023-03-22T04:38:27;96706.38;;;9.14;79.79
21185;BME280;18176;49.502;11.754;2023-03-22T04:42:27;96706.47;;;9.08;79.14
21185;BME280;18176;49.502;11.754;2023-03-22T04:46:39;96708.84;;;8.86;79.34
21185;BME280;18176;49.502;11.754;2023-03-22T04:50:41;96705.34;;;8.74;80.72
21185;BME280;18176;49.502;11.754;2023-03-22T04:54:45;96705.91;;;8.76;80.63
21185;BME280;18176;49.502;11.754;2023-03-22T04:58:46;96689.63;;;8.61;80.19
21185;BME280;18176;49.502;11.754;2023-03-22T05:02:47;96698.97;;;8.45;80.75
21185;BME280;18176;49.502;11.754;2023-03-22T05:06:57;96697.25;;;8.39;82.13
21185;BME280;18176;49.502;11.754;2023-03-22T05:11:15;96707.28;;;8.49;80.88
21185;BME280;18176;49.502;11.754;2023-03-22T05:15:29;96703.75;;;8.55;80.90
21185;BME280;18176;49.502;11.754;2023-03-22T05:19:32;96710.50;;;8.51;80.49
21185;BME280;18176;49.502;11.754;2023-03-22T05:23:33;96674.59;;;8.32;80.89
21185;BME280;18176;49.502;11.754;2023-03-22T05:27:37;96699.94;;;8.51;80.67
21185;BME280;18176;49.502;11.754;2023-03-22T05:31:51;96709.19;;;8.60;80.20
21185;BME280;18176;49.502;11.754;2023-03-22T05:35:52;96696.56;;;8.62;79.28
21185;BME280;18176;49.502;11.754;2023-03-22T05:39:54;96710.78;;;8.61;79.76
21185;BME280;18176;49.502;11.754;2023-03-22T05:44:08;96714.31;;;8.55;80.27
21185;BME280;18176;49.502;11.754;2023-03-22T05:48:18;96708.84;;;8.68;80.04
21185;BME280;18176;49.502;11.754;2023-03-22T05:52:18;96714.28;;;8.73;79.62
21185;BME280;18176;49.502;11.754;2023-03-22T05:56:37;96717.41;;;8.82;80.59
21185;BME280;18176;49.502;11.754;2023-03-22T06:00:40;96718.94;;;8.89;80.70
21185;BME280;18176;49.502;11.754;2023-03-22T06:05:00;96705.69;;;8.78;81.48
21185;BME280;18176;49.502;11.754;2023-03-22T06:09:01;96702.22;;;8.77;81.60
21185;BME280;18176;49.502;11.754;2023-03-22T06:13:20;96698.81;;;8.77;81.99
21185;BME280;18176;49.502;11.754;2023-03-22T06:17:23;96690.91;;;8.88;81.51
21185;BME280;18176;49.502;11.754;2023-03-22T06:21:24;96696.91;;;8.95;81.87
21185;BME280;18176;49.502;11.754;2023-03-22T06:25:25;96691.88;;;9.05;82.01
21185;BME280;18176;49.502;11.754;2023-03-22T06:29:26;96698.63;;;9.43;82.24
21185;BME280;18176;49.502;11.754;2023-03-22T06:33:31;96703.50;;;9.69;81.16
21185;BME280;18176;49.502;11.754;2023-03-22T06:37:44;96701.06;;;9.79;79.36
21185;BME280;18176;49.502;11.754;2023-03-22T06:41:45;96706.59;;;9.66;79.72
21185;BME280;18176;49.502;11.754;2023-03-22T06:45:45;96707.97;;;9.80;79.74
21185;BME280;18176;49.502;11.754;2023-03-22T06:49:54;96701.31;;;10.01;79.96
21185;BME280;18176;49.502;11.754;2023-03-22T06:54:07;96706.00;;;10.33;78.87
21185;BME280;18176;49.502;11.754;2023-03-22T06:58:09;96698.94;;;10.50;79.26
21185;BME280;18176;49.502;11.754;2023-03-22T07:02:12;96705.53;;;10.76;78.40
21185;BME280;18176;49.502;11.754;2023-03-22T07:06:36;96699.16;;;10.89;77.33
21185;BME280;18176;49.502;11.754;2023-03-22T07:10:38;96704.31;;;10.95;78.02
21185;BME280;18176;49.502;11.754;2023-03-22T07:14:41;96693.16;;;10.93;77.91
21185;BME280;18176;49.502;11.754;2023-03-22T07:18:53;96699.13;;;11.17;77.73
21185;BME280;18176;49.502;11.754;2023-03-22T07:22:57;96687.25;;;11.36;77.46
21185;BME280;18176;49.502;11.754;2023-03-22T07:27:00;96689.44;;;11.89;76.04
21185;BME280;18176;49.502;11.754;2023-03-22T07:31:04;96689.19;;;12.72;73.60
21185;BME280;18176;49.502;11.754;2023-03-22T07:35:41;96682.78;;;13.16;70.93
21185;BME280;18176;49.502;11.754;2023-03-22T07:39:44;96690.84;;;13.53;69.08
21185;BME280;18176;49.502;11.754;2023-03-22T07:43:45;96689.53;;;13.56;69.76
21185;BME280;18176;49.502;11.754;2023-03-22T07:47:58;96685.97;;;13.82;67.90
21185;BME280;18176;49.502;11.754;2023-03-22T07:52:22;96668.00;;;13.99;66.23
21185;BME280;18176;49.502;11.754;2023-03-22T07:56:26;96691.66;;;14.37;66.28
21185;BME280;18176;49.502;11.754;2023-03-22T08:00:29;96685.91;;;14.60;65.33
21185;BME280;18176;49.502;11.754;2023-03-22T08:04:50;96692.50;;;15.15;63.33
21185;BME280;18176;49.502;11.754;2023-03-22T08:09:13;96689.34;;;15.53;61.96
21185;BME280;18176;49.502;11.754;2023-03-22T08:13:21;96685.31;;;16.01;60.38
21185;BME280;18176;49.502;11.754;2023-03-22T08:17:22;96681.47;;;16.42;59.28
21185;BME280;18176;49.502;11.754;2023-03-22T08:21:23;96683.53;;;16.70;57.21
21185;BME280;18176;49.502;11.754;2023-03-22T08:25:25;96684.44;;;17.05;56.11
21185;BME280;18176;49.502;11.754;2023-03-22T08:29:37;96676.69;;;17.03;53.84
21185;BME280;18176;49.502;11.754;2023-03-22T08:33:38;96673.19;;;17.46;53.00
21185;BME280;18176;49.502;11.754;2023-03-22T08:37:39;96667.47;;;17.92;52.55
21185;BME280;18176;49.502;11.754;2023-03-22T08:41:40;96660.78;;;18.18;51.50
21185;BME280;18176;49.502;11.754;2023-03-22T08:45:44;96656.88;;;18.76;49.55
21185;BME280;18176;49.502;11.754;2023-03-22T08:49:46;96644.53;;;19.18;47.38
21185;BME280;18176;49.502;11.754;2023-03-22T08:53:53;96643.16;;;19.02;44.02
21185;BME280;18176;49.502;11.754;2023-03-22T08:58:27;96654.06;;;17.92;44.49
21185;BME280;18176;49.502;11.754;2023-03-22T09:03:03;96642.28;;;17.93;41.73
21185;BME280;18176;49.502;11.754;2023-03-22T09:07:04;96647.81;;;17.73;41.42
21185;BME280;18176;49.502;11.754;2023-03-22T09:11:08;96631.78;;;18.20;41.32
21185;BME280;18176;49.502;11.754;2023-03-22T09:15:11;96630.16;;;18.90;40.33
21185;BME280;18176;49.502;11.754;2023-03-22T09:19:18;96625.94;;;18.84;40.34
21185;BME280;18176;49.502;11.754;2023-03-22T09:23:19;96635.09;;;19.02;40.80
21185;BME280;18176;49.502;11.754;2023-03-22T09:27:20;96634.06;;;19.35;39.52
21185;BME280;18176;49.502;11.754;2023-03-22T09:31:21;96633.44;;;19.43;39.80
21185;BME280;18176;49.502;11.754;2023-03-22T09:35:40;96634.22;;;18.45;41.48
21185;BME280;18176;49.502;11.754;2023-03-22T09:39:43;96630.50;;;18.83;40.91
21185;BME280;18176;49.502;11.754;2023-03-22T09:43:49;96613.75;;;19.10;40.32
21185;BME280;18176;49.502;11.754;2023-03-22T09:47:56;96618.09;;;19.43;39.06
21185;BME280;18176;49.502;11.754;2023-03-22T09:52:00;96612.38;;;18.75;40.23
21185;BME280;18176;49.502;11.754;2023-03-22T09:56:07;96609.09;;;19.16;39.08
21185;BME280;18176;49.502;11.754;2023-03-22T10:00:17;96601.00;;;19.53;38.96
21185;BME280;18176;49.502;11.754;2023-03-22T10:04:47;96616.00;;;19.73;38.29
21185;BME280;18176;49.502;11.754;2023-03-22T10:09:05;96602.00;;;19.57;39.22
21185;BME280;18176;49.502;11.754;2023-03-22T10:13:16;96605.28;;;19.86;38.75
21185;BME280;18176;49.502;11.754;2023-03-22T10:17:25;96605.03;;;19.69;39.74
21185;BME280;18176;49.502;11.754;2023-03-22T10:21:27;96608.66;;;19.92;39.50
21185;BME280;18176;49.502;11.754;2023-03-22T10:25:36;96602.50;;;19.91;39.20
21185;BME280;18176;49.502;11.754;2023-03-22T10:29:41;96590.38;;;20.07;39.56
21185;BME280;18176;49.502;11.754;2023-03-22T10:33:51;96584.38;;;20.65;38.39
21185;BME280;18176;49.502;11.754;2023-03-22T10:37:57;96572.03;;;20.86;37.52
21185;BME280;18176;49.502;11.754;2023-03-22T10:42:06;96571.69;;;21.90;36.71
21185;BME280;18176;49.502;11.754;2023-03-22T10:46:17;96571.72;;;21.01;36.76
21185;BME280;18176;49.502;11.754;2023-03-22T10:50:23;96569.69;;;21.20;37.09
21185;BME280;18176;49.502;11.754;2023-03-22T10:54:29;96574.69;;;21.13;38.10
21185;BME280;18176;49.502;11.754;2023-03-22T10:58:34;96561.91;;;21.94;37.06
21185;BME280;18176;49.502;11.754;2023-03-22T11:02:49;96573.78;;;22.32;35.49
21185;BME280;18176;49.502;11.754;2023-03-22T11:06:53;96546.66;;;22.37;35.59
21185;BME280;18176;49.502;11.754;2023-03-22T11:10:57;96567.09;;;22.21;35.52
21185;BME280;18176;49.502;11.754;2023-03-22T11:15:23;96552.78;;;22.77;34.85
21185;BME280;18176;49.502;11.754;2023-03-22T11:19:31;96550.72;;;22.99;34.04
21185;BME280;18176;49.502;11.754;2023-03-22T11:23:35;96541.63;;;23.64;34.08
21185;BME280;18176;49.502;11.754;2023-03-22T11:27:49;96534.19;;;25.07;32.11
21185;BME280;18176;49.502;11.754;2023-03-22T11:31:56;96535.56;;;24.13;32.55
21185;BME280;18176;49.502;11.754;2023-03-22T11:36:00;96528.63;;;24.33;32.48
21185;BME280;18176;49.502;11.754;2023-03-22T11:40:05;96516.91;;;23.74;33.77
21185;BME280;18176;49.502;11.754;2023-03-22T11:44:11;96535.59;;;23.24;33.92
21185;BME280;18176;49.502;11.754;2023-03-22T11:48:20;96517.66;;;23.02;34.24
21185;BME280;18176;49.502;11.754;2023-03-22T11:52:26;96501.34;;;23.71;33.35
21185;BME280;18176;49.502;11.754;2023-03-22T11:56:29;96494.44;;;23.82;32.61
21185;BME280;18176;49.502;11.754;2023-03-22T12:00:34;96481.88;;;24.45;32.13
21185;BME280;18176;49.502;11.754;2023-03-22T12:04:43;96494.09;;;23.29;32.42
21185;BME280;18176;49.502;11.754;2023-03-22T12:08:50;96499.38;;;22.99;33.40
21185;BME280;18176;49.502;11.754;2023-03-22T12:12:58;96478.59;;;24.01;32.54
21185;BME280;18176;49.502;11.754;2023-03-22T12:17:06;96482.22;;;24.84;31.28
21185;BME280;18176;49.502;11.754;2023-03-22T12:21:10;96496.41;;;24.02;32.05
21185;BME280;18176;49.502;11.754;2023-03-22T12:25:15;96476.78;;;23.76;32.62
21185;BME280;18176;49.502;11.754;2023-03-22T12:29:20;96471.75;;;23.66;31.64
21185;BME280;18176;49.502;11.754;2023-03-22T12:33:25;96468.44;;;25.10;31.02
21185;BME280;18176;49.502;11.754;2023-03-22T12:37:34;96460.78;;;24.71;30.57
21185;BME280;18176;49.502;11.754;2023-03-22T12:41:38;96464.69;;;23.19;31.77
21185;BME280;18176;49.502;11.754;2023-03-22T12:45:43;96454.91;;;23.98;31.18
21185;BME280;18176;49.502;11.754;2023-03-22T12:49:53;96467.75;;;24.10;30.59
21185;BME280;18176;49.502;11.754;2023-03-22T12:54:00;96463.13;;;24.60;29.25
21185;BME280;18176;49.502;11.754;2023-03-22T12:58:05;96462.03;;;23.73;28.93
21185;BME280;18176;49.502;11.754;2023-03-22T13:02:16;96456.63;;;24.53;28.53
21185;BME280;18176;49.502;11.754;2023-03-22T13:06:53;96466.91;;;22.31;31.68
21185;BME280;18176;49.502;11.754;2023-03-22T13:11:21;96448.63;;;22.11;31.11
21185;BME280;18176;49.502;11.754;2023-03-22T13:15:33;96432.47;;;22.28;31.72
21185;BME280;18176;49.502;11.754;2023-03-22T13:19:50;96433.72;;;22.22;32.02
21185;BME280;18176;49.502;11.754;2023-03-22T13:24:01;96438.03;;;22.91;32.43
21185;BME280;18176;49.502;11.754;2023-03-22T13:28:26;96436.75;;;23.61;30.87
21185;BME280;18176;49.502;11.754;2023-03-22T13:32:35;96431.06;;;23.54;31.12
21185;BME280;18176;49.502;11.754;2023-03-22T13:36:36;96435.63;;;22.98;31.43
21185;BME280;18176;49.502;11.754;2023-03-22T13:40:48;96433.56;;;23.04;31.09
21185;BME280;18176;49.502;11.754;2023-03-22T13:44:58;96438.66;;;22.28;32.42
21185;BME280;18176;49.502;11.754;2023-03-22T13:49:27;96436.31;;;22.61;32.30
21185;BME280;18176;49.502;11.754;2023-03-22T13:53:34;96434.41;;;23.51;31.06
21185;BME280;18176;49.502;11.754;2023-03-22T13:57:48;96426.59;;;22.34;32.18
21185;BME280;18176;49.502;11.754;2023-03-22T14:02:01;96421.97;;;22.01;32.07
21185;BME280;18176;49.502;11.754;2023-03-22T14:06:13;96413.66;;;21.41;33.33
21185;BME280;18176;49.502;11.754;2023-03-22T14:10:24;96404.19;;;21.21;34.14
21185;BME280;18176;49.502;11.754;2023-03-22T14:14:31;96416.97;;;20.85;35.03
21185;BME280;18176;49.502;11.754;2023-03-22T14:18:43;96404.59;;;21.06;34.14
21185;BME280;18176;49.502;11.754;2023-03-22T14:22:52;96423.47;;;21.06;34.26
21185;BME280;18176;49.502;11.754;2023-03-22T14:26:56;96419.97;;;21.06;34.17
21185;BME280;18176;49.502;11.754;2023-03-22T14:30:57;96408.63;;;21.17;34.43
21185;BME280;18176;49.502;11.754;2023-03-22T14:35:06;96405.00;;;21.22;34.54
21185;BME280;18176;49.502;11.754;2023-03-22T14:39:13;96403.03;;;21.44;33.38
21185;BME280;18176;49.502;11.754;2023-03-22T14:43:22;96391.75;;;21.34;33.83
21185;BME280;18176;49.502;11.754;2023-03-22T14:47:26;96397.13;;;21.82;33.53
21185;BME280;18176;49.502;11.754;2023-03-22T14:51:35;96406.09;;;22.25;30.53
21185;BME280;18176;49.502;11.754;2023-03-22T14:55:37;96401.50;;;21.69;31.13
21185;BME280;18176;49.502;11.754;2023-03-22T14:59:44;96401.63;;;21.16;30.63
21185;BME280;18176;49.502;11.754;2023-03-22T15:03:51;96410.53;;;20.94;30.54
21185;BME280;18176;49.502;11.754;2023-03-22T15:08:08;96400.44;;;20.78;31.08
21185;BME280;18176;49.502;11.754;2023-03-22T15:12:11;96397.09;;;20.50;31.72
21185;BME280;18176;49.502;11.754;2023-03-22T15:16:17;96389.53;;;21.05;31.38
21185;BME280;18176;49.502;11.754;2023-03-22T15:20:26;96391.44;;;20.82;31.69
21185;BME280;18176;49.502;11.754;2023-03-22T15:24:35;96388.78;;;20.60;32.27
21185;BME280;18176;49.502;11.754;2023-03-22T15:28:43;96396.53;;;20.62;32.32
21185;BME280;18176;49.502;11.754;2023-03-22T15:32:45;96383.19;;;20.35;32.21
21185;BME280;18176;49.502;11.754;2023-03-22T15:36:47;96382.59;;;21.43;31.22
21185;BME280;18176;49.502;11.754;2023-03-22T15:40:55;96372.53;;;21.83;30.80
21185;BME280;18176;49.502;11.754;2023-03-22T15:44:59;96373.22;;;21.89;30.70
21185;BME280;18176;49.502;11.754;2023-03-22T15:49:18;96375.03;;;21.23;31.62
21185;BME280;18176;49.502;11.754;2023-03-22T15:53:29;96372.44;;;20.79;31.92
21185;BME280;18176;49.502;11.754;2023-03-22T15:57:47;96368.34;;;21.12;31.85
21185;BME280;18176;49.502;11.754;2023-03-22T16:01:50;96359.50;;;21.20;30.71
21185;BME280;18176;49.502;11.754;2023-03-22T16:05:52;96373.47;;;21.00;31.23
21185;BME280;18176;49.502;11.754;2023-03-22T16:09:54;96369.66;;;21.23;30.63
21185;BME280;18176;49.502;11.754;2023-03-22T16:14:02;96375.50;;;21.17;31.36
21185;BME280;18176;49.502;11.754;2023-03-22T16:18:08;96371.25;;;20.71;32.37
21185;BME280;18176;49.502;11.754;2023-03-22T16:22:11;96366.19;;;20.48;32.50
21185;BME280;18176;49.502;11.754;2023-03-22T16:26:15;96373.56;;;19.84;33.83
21185;BME280;18176;49.502;11.754;2023-03-22T16:30:19;96370.06;;;19.84;33.99
21185;BME280;18176;49.502;11.754;2023-03-22T16:34:20;96373.19;;;19.99;33.99
21185;BME280;18176;49.502;11.754;2023-03-22T16:38:20;96378.78;;;19.89;34.30
21185;BME280;18176;49.502;11.754;2023-03-22T16:42:25;96370.09;;;19.70;34.04
21185;BME280;18176;49.502;11.754;2023-03-22T16:46:28;96371.06;;;19.74;34.20
21185;BME280;18176;49.502;11.754;2023-03-22T16:50:33;96381.13;;;19.82;34.62
21185;BME280;18176;49.502;11.754;2023-03-22T16:54:34;96370.38;;;19.69;34.58
21185;BME280;18176;49.502;11.754;2023-03-22T16:58:36;96379.53;;;19.27;35.25
21185;BME280;18176;49.502;11.754;2023-03-22T17:02:40;96372.94;;;19.06;35.74
21185;BME280;18176;49.502;11.754;2023-03-22T17:06:41;96372.03;;;18.83;36.27
21185;BME280;18176;49.502;11.754;2023-03-22T17:10:43;96377.59;;;18.86;36.58
21185;BME280;18176;49.502;11.754;2023-03-22T17:14:46;96384.13;;;18.80;36.38
21185;BME280;18176;49.502;11.754;2023-03-22T17:18:51;96380.72;;;18.75;37.87
21185;BME280;18176;49.502;11.754;2023-03-22T17:22:56;96385.72;;;18.81;37.57
21185;BME280;18176;49.502;11.754;2023-03-22T17:27:02;96382.06;;;18.59;38.25
21185;BME280;18176;49.502;11.754;2023-03-22T17:31:06;96379.47;;;18.35;38.76
21185;BME280;18176;49.502;11.754;2023-03-22T17:35:18;96393.63;;;18.22;39.23
21185;BME280;18176;49.502;11.754;2023-03-22T17:39:21;96395.16;;;18.09;39.31
21185;BME280;18176;49.502;11.754;2023-03-22T17:43:43;96404.16;;;17.58;40.58
21185;BME280;18176;49.502;11.754;2023-03-22T17:47:46;96400.13;;;17.31;41.04
21185;BME280;18176;49.502;11.754;2023-03-22T17:51:51;96411.94;;;17.30;42.54
21185;BME280;18176;49.502;11.754;2023-03-22T17:55:53;96411.66;;;17.08;42.29
21185;BME280;18176;49.502;11.754;2023-03-22T18:00:20;96418.31;;;16.82;43.34
21185;BME280;18176;49.502;11.754;2023-03-22T18:04:23;96424.84;;;16.71;43.46
21185;BME280;18176;49.502;11.754;2023-03-22T18:08:28;96423.88;;;16.57;43.67
21185;BME280;18176;49.502;11.754;2023-03-22T18:12:29;96434.06;;;16.55;43.73
21185;BME280;18176;49.502;11.754;2023-03-22T18:16:30;96431.91;;;16.57;43.33
21185;BME280;18176;49.502;11.754;2023-03-22T18:20:49;96437.50;;;16.16;45.01
21185;BME280;18176;49.502;11.754;2023-03-22T18:24:54;96447.44;;;16.06;45.61
21185;BME280;18176;49.502;11.754;2023-03-22T18:28:55;96439.28;;;15.82;45.67
21185;BME280;18176;49.502;11.754;2023-03-22T18:32:56;96433.13;;;15.82;47.60
21185;BME280;18176;49.502;11.754;2023-03-22T18:37:02;96437.25;;;15.59;48.76
21185;BME280;18176;49.502;11.754;2023-03-22T18:41:10;96432.50;;;15.36;49.29
21185;BME280;18176;49.502;11.754;2023-03-22T18:45:31;96430.38;;;15.33;49.06
21185;BME280;18176;49.502;11.754;2023-03-22T18:49:53;96430.09;;;15.29;48.75
21185;BME280;18176;49.502;11.754;2023-03-22T18:53:53;96430.44;;;15.03;49.55
21185;BME280;18176;49.502;11.754;2023-03-22T18:57:58;96423.53;;;14.76;50.32
21185;BME280;18176;49.502;11.754;2023-03-22T19:01:59;96433.94;;;14.73;50.26
21185;BME280;18176;49.502;11.754;2023-03-22T19:06:15;96427.00;;;14.62;51.12
21185;BME280;18176;49.502;11.754;2023-03-22T19:10:21;96428.59;;;14.53;51.68
21185;BME280;18176;49.502;11.754;2023-03-22T19:14:29;96423.00;;;14.49;52.44
21185;BME280;18176;49.502;11.754;2023-03-22T19:18:37;96436.88;;;14.31;53.47
21185;BME280;18176;49.502;11.754;2023-03-22T19:22:38;96431.03;;;14.34;53.08
21185;BME280;18176;49.502;11.754;2023-03-22T19:26:38;96430.44;;;14.27;54.76
21185;BME280;18176;49.502;11.754;2023-03-22T19:31:00;96430.41;;;14.12;54.86
21185;BME280;18176;49.502;11.754;2023-03-22T19:35:02;96433.84;;;13.92;55.54
21185;BME280;18176;49.502;11.754;2023-03-22T19:39:03;96393.75;;;13.47;56.76
21185;BME280;18176;49.502;11.754;2023-03-22T19:43:11;96427.66;;;13.72;56.42
21185;BME280;18176;49.502;11.754;2023-03-22T19:47:15;96431.88;;;13.68;56.80
21185;BME280;18176;49.502;11.754;2023-03-22T19:51:18;96428.69;;;13.66;56.75
21185;BME280;18176;49.502;11.754;2023-03-22T19:55:19;96427.59;;;13.62;57.39
21185;BME280;18176;49.502;11.754;2023-03-22T19:59:19;96431.28;;;13.51;57.46
21185;BME280;18176;49.502;11.754;2023-03-22T20:03:24;96432.22;;;13.24;58.10
21185;BME280;18176;49.502;11.754;2023-03-22T20:07:26;96424.75;;;13.16;58.48
21185;BME280;18176;49.502;11.754;2023-03-22T20:11:28;96431.66;;;13.17;58.61
21185;BME280;18176;49.502;11.754;2023-03-22T20:15:39;96426.88;;;13.14;58.86
21185;BME280;18176;49.502;11.754;2023-03-22T20:19:43;96394.66;;;13.11;58.32
21185;BME280;18176;49.502;11.754;2023-03-22T20:23:44;96426.97;;;13.34;58.22
21185;BME280;18176;49.502;11.754;2023-03-22T20:27:44;96439.59;;;13.12;59.16
21185;BME280;18176;49.502;11.754;2023-03-22T20:31:45;96441.66;;;13.00;59.22
21185;BME280;18176;49.502;11.754;2023-03-22T20:35:49;96439.59;;;13.12;59.04
21185;BME280;18176;49.502;11.754;2023-03-22T20:39:51;96444.28;;;12.95;59.45
21185;BME280;18176;49.502;11.754;2023-03-22T20:43:55;96436.75;;;12.82;59.85
21185;BME280;18176;49.502;11.754;2023-03-22T20:48:00;96449.53;;;12.90;60.08
21185;BME280;18176;49.502;11.754;2023-03-22T20:52:07;96453.59;;;12.98;59.89
21185;BME280;18176;49.502;11.754;2023-03-22T20:56:10;96434.59;;;12.79;60.45
21185;BME280;18176;49.502;11.754;2023-03-22T21:00:15;96440.03;;;12.99;60.05
21185;BME280;18176;49.502;11.754;2023-03-22T21:04:22;96439.41;;;12.82;60.14
21185;BME280;18176;49.502;11.754;2023-03-22T21:08:30;96446.28;;;12.46;61.50
21185;BME280;18176;49.502;11.754;2023-03-22T21:12:38;96450.00;;;12.45;61.51
21185;BME280;18176;49.502;11.754;2023-03-22T21:16:42;96432.66;;;12.38;62.04
21185;BME280;18176;49.502;11.754;2023-03-22T21:20:44;96435.38;;;12.43;62.02
21185;BME280;18176;49.502;11.754;2023-03-22T21:24:48;96428.22;;;12.48;61.91
21185;BME280;18176;49.502;11.754;2023-03-22T21:28:48;96426.66;;;12.52;62.00
21185;BME280;18176;49.502;11.754;2023-03-22T21:32:49;96433.91;;;12.62;61.64
21185;BME280;18176;49.502;11.754;2023-03-22T21:36:50;96432.38;;;12.66;61.26
21185;BME280;18176;49.502;11.754;2023-03-22T21:40:57;96434.63;;;12.47;61.76
21185;BME280;18176;49.502;11.754;2023-03-22T21:44:58;96434.56;;;12.42;62.16
21185;BME280;18176;49.502;11.754;2023-03-22T21:49:00;96428.88;;;12.29;62.58